AirNav   Air Wisconsin Up To $57,000 Bonus
 
 1763 users online  

16IN Deaconess Hospital Heliport
Evansville, Indiana, USA

GOING TO EVANSVILLE?


FAA INFORMATION EFFECTIVE 02 JANUARY 2020

Location

FAA Identifier: 16IN
Lat/Long: 37-59-02.8600N 087-34-19.0500W
37-59.047667N 087-34.317500W
37.9841278,-87.5719583
(estimated)
Elevation: 390 ft. / 119 m (estimated)
Variation: 00W (1985)
Time zone: UTC -6 (UTC -5 during Daylight Saving Time)
Zip code: 47710

Heliport Operations

Heliport use: Private use, MEDICAL USE.
Activation date: 10/1974
Control tower: no
ARTCC: INDIANAPOLIS CENTER
FSS: TERRE HAUTE FLIGHT SERVICE STATION
Attendance: IREG
Wind indicator: yes
Segmented circle: no
Lights: FOR LGTS PHONE 812-426-3500
Beacon: white-green-yellow (heliport)
FOR ROTG BCN PHONE 812-426-3500

Heliport Communications

UNICOM: 123.05
WX ASOS at EVV (4 nm NE): 120.2 (812-436-4681)
WX AWOS-3PT at EHR (12 nm SW): 118.85 (270-826-0511)

Nearby radio navigation aids

VOR radial/distance  VOR name  Freq  Var
PXVr067/9.6POCKET CITY VORTAC113.3003E
OWBr311/24.0OWENSBORO VOR/DME108.6004W
SAMr138/38.6SAMSVILLE VOR/DME116.6003E
CCTr339/39.0CENTRAL CITY VORTAC109.8001W

Heliport Services

Runway Information

Helipad H1

Dimensions: 70 x 70 ft. / 21 x 21 m
Surface: asphalt
Runway edge lights: low intensity
Latitude: 37-59.047667N
Longitude: 087-34.317500W
Elevation: 390.0 ft.
Traffic pattern: leftleft

Helipad H2

Dimensions: 70 x 70 ft. / 21 x 21 m
Surface: asphalt/concrete
Latitude: 37-59.047833N
Longitude: 087-34.333500W
Elevation: 390.0 ft.
Traffic pattern: leftleft

Heliport Ownership and Management from official FAA records

Ownership: Privately-owned
Owner: DEACONESS HOSPITAL
600 MARY ST
EVANSVILLE, IN 47747
Phone 812-450-5000
Manager: MARK MERRILL
600 MARY ST, 600 MARY ST
EVANSVILLE, IN 47747
Phone 812-450-3098
SECURITY COORDINATOR

Heliport Operational Statistics

Aircraft based on the field: 1
Helicopters: 1
    

Additional Remarks

A52-H1 BLDG AND SMOKESTACK-LIGHTED
FOR CD CTC EVANSVILLE APCH AT 812-436-4690, WHEN APCH CLSD CTC INDIANAPOLIS ARTCC AT 317-247-2411.

Instrument Procedures

There are no published instrument procedures at 16IN.

Some nearby airports with instrument procedures:

KEVV - Evansville Regional Airport (4 nm NE)
KEHR - Henderson City-County Airport (12 nm SW)
KOWB - Owensboro-Daviess County Regional Airport (24 nm SE)
KCUL - Carmi Municipal Airport (27 nm W)
KTWT - Sturgis Municipal Airport (32 nm SW)
 
Loc | Ops | Rwys | IFR | FBO | Links
Com | Nav | Svcs | Stats | Notes
Area around 16IN (Deaconess Hospital Heliport)
 
Road maps at: MapQuest Bing Google
 
Aerial photo
No photo
 
Sectional chart

 
Airport distance calculator
Flying to Deaconess Hospital Heliport? Find the distance to fly.

From to 16IN

Sunrise and sunset
Times for 23-Jan-2020
 Local
(UTC-6)
 Zulu
(UTC)
Morning civil twilight06:3412:34
Sunrise07:0213:02
Sunset17:0223:02
Evening civil twilight17:3023:30

Current date and time
Zulu (UTC)  23-Jan-2020 20:47:47
Local (UTC-6)  23-Jan-2020 14:47:47
 
METAR
KEVV 
5nm NE 
231954Z 10003KT 10SM -RA OVC050 06/M02 A3004 RMK AO2 SLP175 P0001 T00561017
KEHR 
11nm SW 
231956Z AUTO 14004KT 10SM -RA OVC035 04/01 A3004 RMK AO2 SLP174 P0002 T00440011
KI19 
13nm E 
232016Z AUTO 14003KT 10SM OVC100 08/M09 A3015 RMK AO2 T00761091
TAF
KEVV 
5nm NE 
232003Z 2320/2418 10004KT P6SM -RA OVC050 FM232200 14007KT 6SM -RA OVC028 FM240000 12006KT 4SM -RA OVC014 FM240200 11006KT 4SM -RA OVC006 FM240700 VRB03KT 2SM -RA BR OVC004 FM241500 22006KT 5SM BR OVC007
NOTAMs
Click for the latest NOTAMs
NOTAMs are issued by the DoD/FAA and will open in a separate window not controlled by AirNav.

 

 
 

Would you like to see your business listed on this page?

 If your business provides an interesting product or service to pilots, flight crews, aircraft, or users of the Deaconess Hospital Heliport, you should consider listing it here.  To start the listing process, click on the button below
 
Add a business
 

Other Pages about Deaconess Hospital Heliport

Update a link
 
Copyright © AirNav, LLC. All rights reserved. Privacy Policy  Contact